createdAt,value
2018-03-11T00:01:20.672Z,99257.44
2018-03-11T00:03:49.954Z,99265.66
2018-03-11T00:06:19.096Z,99273.63
2018-03-11T00:08:48.120Z,99282.32
2018-03-11T00:11:17.003Z,99297.80
2018-03-11T00:13:46.154Z,99294.96
2018-03-11T00:16:15.163Z,99302.48
2018-03-11T00:18:44.386Z,99305.91
2018-03-11T00:21:13.412Z,99316.41
2018-03-11T00:23:42.655Z,99310.91
2018-03-11T00:26:12.639Z,99322.16
2018-03-11T00:28:41.761Z,99319.15
2018-03-11T00:31:10.786Z,99329.42
2018-03-11T00:33:39.777Z,99330.70
2018-03-11T00:36:08.780Z,99332.09
2018-03-11T00:38:37.836Z,99336.30
2018-03-11T00:41:07.436Z,99336.13
2018-03-11T00:43:36.463Z,99342.85
2018-03-11T00:46:05.876Z,99347.84
2018-03-11T00:48:34.915Z,99344.11
2018-03-11T00:51:04.136Z,99347.16
2018-03-11T00:53:33.110Z,99358.05
2018-03-11T00:56:02.580Z,99359.74
2018-03-11T00:58:31.889Z,99352.39
2018-03-11T01:01:00.950Z,99357.13
2018-03-11T01:03:30.101Z,99356.06
2018-03-11T01:05:59.076Z,99360.10
2018-03-11T01:08:28.447Z,99362.81
2018-03-11T01:10:57.462Z,99370.77
2018-03-11T01:13:26.376Z,99368.58
2018-03-11T01:15:55.405Z,99374.53
2018-03-11T01:18:24.368Z,99378.55
2018-03-11T01:20:53.458Z,99382.33
2018-03-11T01:23:22.738Z,99384.48
2018-03-11T01:25:51.677Z,99387.45
2018-03-11T01:28:20.830Z,99389.36
2018-03-11T01:30:50.109Z,99396.84
2018-03-11T01:33:19.098Z,99390.75
2018-03-11T01:35:48.103Z,99397.39
2018-03-11T01:38:17.201Z,99411.91
2018-03-11T01:40:46.532Z,99410.02
2018-03-11T01:43:17.090Z,99418.37
2018-03-11T01:45:46.372Z,99412.05
2018-03-11T01:48:15.683Z,99418.69
2018-03-11T01:50:44.636Z,99424.79
2018-03-11T01:53:13.869Z,99425.08
2018-03-11T01:55:42.848Z,99432.05
2018-03-11T01:58:12.322Z,99434.23
2018-03-11T02:00:41.224Z,99435.65
2018-03-11T02:03:10.301Z,99435.75
2018-03-11T02:05:39.208Z,99444.17
2018-03-11T02:08:09.193Z,99451.42
2018-03-11T02:10:38.352Z,99449.91
2018-03-11T02:13:07.498Z,99452.19
2018-03-11T02:15:36.379Z,99450.70
2018-03-11T02:18:05.264Z,99446.71
2018-03-11T02:20:34.504Z,99455.31
2018-03-11T02:23:03.656Z,99459.47
2018-03-11T02:25:32.742Z,99466.72
2018-03-11T02:28:01.729Z,99480.00
2018-03-11T02:30:30.852Z,99466.44
2018-03-11T02:32:59.813Z,99474.98
2018-03-11T02:35:28.923Z,99481.77
2018-03-11T02:37:57.909Z,99486.61
2018-03-11T02:40:26.907Z,99487.45
2018-03-11T02:42:56.103Z,99493.31
2018-03-11T02:45:25.507Z,99492.75
2018-03-11T02:47:54.331Z,99496.88
2018-03-11T02:50:29.119Z,99494.59
2018-03-11T02:52:58.427Z,99495.30
2018-03-11T02:55:27.582Z,99488.66
2018-03-11T02:57:57.474Z,99498.70
2018-03-11T03:00:26.792Z,99499.54
2018-03-11T03:02:56.098Z,99507.27
2018-03-11T03:05:25.182Z,99500.27
2018-03-11T03:07:54.605Z,99506.34
2018-03-11T03:10:23.592Z,99511.17
2018-03-11T03:12:52.770Z,99519.20
2018-03-11T03:15:22.193Z,99526.29
2018-03-11T03:17:51.308Z,99527.84
2018-03-11T03:20:20.828Z,99535.81
2018-03-11T03:22:49.622Z,99535.44
2018-03-11T03:25:18.652Z,99540.72
2018-03-11T03:27:47.569Z,99540.31
2018-03-11T03:30:16.531Z,99545.88
2018-03-11T03:32:45.548Z,99541.61
2018-03-11T03:35:14.631Z,99541.91
2018-03-11T03:37:43.966Z,99544.70
2018-03-11T03:40:12.938Z,99555.11
2018-03-11T03:42:41.879Z,99545.89
2018-03-11T03:45:10.993Z,99557.17
2018-03-11T03:47:40.487Z,99555.60
2018-03-11T03:50:09.250Z,99551.78
2018-03-11T03:52:38.395Z,99564.40
2018-03-11T03:55:07.308Z,99558.37
2018-03-11T03:57:36.578Z,99557.30
2018-03-11T04:00:05.833Z,99561.47
2018-03-11T04:02:34.827Z,99567.13
2018-03-11T04:05:04.399Z,99571.64
2018-03-11T04:07:33.560Z,99573.07
2018-03-11T04:10:02.991Z,99578.84
2018-03-11T04:12:32.323Z,99572.78
2018-03-11T04:15:01.517Z,99572.84
2018-03-11T04:17:30.578Z,99582.14
2018-03-11T04:19:59.753Z,99582.34
2018-03-11T04:22:28.828Z,99594.27
2018-03-11T04:24:57.923Z,99589.98
2018-03-11T04:27:27.066Z,99585.69
2018-03-11T04:29:56.063Z,99587.89
2018-03-11T04:32:24.908Z,99592.23
2018-03-11T04:34:54.026Z,99590.11
2018-03-11T04:37:23.008Z,99588.86
2018-03-11T04:39:52.019Z,99591.39
2018-03-11T04:42:21.496Z,99589.16
2018-03-11T04:44:50.580Z,99594.34
2018-03-11T04:47:19.865Z,99593.30
2018-03-11T04:49:49.272Z,99588.01
2018-03-11T04:52:18.357Z,99593.23
2018-03-11T04:54:47.554Z,99589.77
2018-03-11T04:57:16.774Z,99597.41
2018-03-11T04:59:45.766Z,99594.02
2018-03-11T05:02:14.850Z,99595.17
2018-03-11T05:04:44.231Z,99596.73
2018-03-11T05:07:13.195Z,99588.52
2018-03-11T05:09:43.514Z,99589.37
2018-03-11T05:12:12.567Z,99579.48
2018-03-11T05:14:41.577Z,99581.56
2018-03-11T05:17:10.821Z,99585.25
2018-03-11T05:19:40.131Z,99587.01
2018-03-11T05:22:09.536Z,99582.19
2018-03-11T05:24:38.685Z,99582.41
2018-03-11T05:27:07.816Z,99577.84
2018-03-11T05:29:37.111Z,99578.16
2018-03-11T05:32:06.461Z,99578.53
2018-03-11T05:34:35.740Z,99578.95
2018-03-11T05:37:05.480Z,99574.37
2018-03-11T05:39:34.812Z,99575.11
2018-03-11T05:42:04.346Z,99567.06
2018-03-11T05:44:33.753Z,99563.17
2018-03-11T05:47:02.906Z,99565.79
2018-03-11T05:49:32.165Z,99564.63
2018-03-11T05:52:01.617Z,99557.03
2018-03-11T05:54:30.582Z,99556.80
2018-03-11T05:57:00.338Z,99556.59
2018-03-11T05:59:29.828Z,99548.52
2018-03-11T06:01:58.914Z,99542.48
2018-03-11T06:04:27.908Z,99537.70
2018-03-11T06:06:57.130Z,99536.11
2018-03-11T06:09:25.972Z,99534.07
2018-03-11T06:11:54.866Z,99525.67
2018-03-11T06:14:23.833Z,99521.02
2018-03-11T06:16:52.868Z,99522.69
2018-03-11T06:19:21.868Z,99520.59
2018-03-11T06:21:51.004Z,99513.62
2018-03-11T06:24:19.827Z,99510.03
2018-03-11T06:26:48.902Z,99506.88
2018-03-11T06:29:18.046Z,99493.08
2018-03-11T06:31:47.074Z,99488.66
2018-03-11T06:34:16.082Z,99484.23
2018-03-11T06:36:45.464Z,99485.59
2018-03-11T06:39:14.857Z,99480.40
2018-03-11T06:41:44.572Z,99474.70
2018-03-11T06:44:15.330Z,99470.39
2018-03-11T06:46:44.409Z,99469.41
2018-03-11T06:49:14.050Z,99464.20
2018-03-11T06:51:43.725Z,99463.70
2018-03-11T06:54:13.592Z,99455.39
2018-03-11T06:56:42.810Z,99454.13
2018-03-11T06:59:12.443Z,99448.72
2018-03-11T07:01:41.934Z,99449.77
2018-03-11T07:04:11.208Z,99442.30
2018-03-11T07:06:40.452Z,99438.86
2018-03-11T07:09:09.666Z,99436.14
2018-03-11T07:11:38.740Z,99430.52
2018-03-11T07:14:07.937Z,99423.69
2018-03-11T07:16:37.258Z,99419.46
2018-03-11T07:19:06.191Z,99410.39
2018-03-11T07:21:35.712Z,99410.35
2018-03-11T07:24:04.893Z,99411.03
2018-03-11T07:26:34.074Z,99408.22
2018-03-11T07:29:03.292Z,99407.05
2018-03-11T07:31:32.950Z,99390.42
2018-03-11T07:34:02.842Z,99387.73
2018-03-11T07:36:32.203Z,99385.77
2018-03-11T07:39:01.191Z,99382.94
2018-03-11T07:41:30.424Z,99377.98
2018-03-11T07:43:59.673Z,99376.56
2018-03-11T07:46:28.988Z,99376.26
2018-03-11T07:48:58.149Z,99369.16
2018-03-11T07:51:27.347Z,99369.70
2018-03-11T07:53:56.494Z,99371.02
2018-03-11T07:56:25.740Z,99358.28
2018-03-11T07:58:54.744Z,99351.82
2018-03-11T08:01:24.076Z,99352.54
2018-03-11T08:03:53.307Z,99350.14
2018-03-11T08:06:22.616Z,99346.50
2018-03-11T08:08:55.700Z,99337.59
2018-03-11T08:11:25.597Z,99339.16
2018-03-11T08:13:56.610Z,99341.92
2018-03-11T08:16:27.576Z,99337.28
2018-03-11T08:18:57.570Z,99338.37
2018-03-11T08:21:27.877Z,99329.63
2018-03-11T08:23:59.563Z,99326.27
2018-03-11T08:26:28.515Z,99318.25
2018-03-11T08:28:57.813Z,99307.07
2018-03-11T08:31:26.652Z,99307.32
2018-03-11T08:33:55.612Z,99302.76
2018-03-11T08:36:24.798Z,99300.22
2018-03-11T08:38:53.911Z,99304.50
2018-03-11T08:41:22.986Z,99299.70
2018-03-11T08:43:52.239Z,99296.42
2018-03-11T08:46:22.126Z,99288.31
2018-03-11T08:48:51.292Z,99290.98
2018-03-11T08:51:20.252Z,99288.20
2018-03-11T08:53:49.746Z,99280.59
2018-03-11T08:56:18.857Z,99278.01
2018-03-11T08:58:48.284Z,99277.52
2018-03-11T09:01:17.178Z,99275.70
2018-03-11T09:03:46.290Z,99275.66
2018-03-11T09:06:15.622Z,99281.38
2018-03-11T09:08:44.978Z,99269.23
2018-03-11T09:11:14.039Z,99260.24
2018-03-11T09:13:43.105Z,99266.28
2018-03-11T09:16:12.578Z,99257.59
2018-03-11T09:18:41.539Z,99259.99
2018-03-11T09:21:10.450Z,99248.58
2018-03-11T09:23:39.821Z,99245.27
2018-03-11T09:26:08.949Z,99254.67
2018-03-11T09:32:45.602Z,99256.10
2018-03-11T09:35:14.888Z,99258.38
2018-03-11T09:37:59.289Z,99254.52
2018-03-11T09:40:28.729Z,99263.08
2018-03-11T09:42:58.223Z,99249.09
2018-03-11T09:45:27.566Z,99241.41
2018-03-11T09:47:56.994Z,99239.59
2018-03-11T09:50:26.678Z,99239.95
2018-03-11T09:52:56.304Z,99241.77
2018-03-11T09:55:25.582Z,99239.76
2018-03-11T09:57:54.844Z,99239.20
2018-03-11T10:00:24.306Z,99239.11
2018-03-11T10:02:53.397Z,99233.33
2018-03-11T10:05:22.357Z,99232.71
2018-03-11T10:07:51.656Z,99233.30
2018-03-11T10:10:21.182Z,99224.92
2018-03-11T10:12:50.868Z,99227.80
2018-03-11T10:15:20.246Z,99219.20
2018-03-11T10:17:49.389Z,99218.36
2018-03-11T10:20:18.838Z,99216.87
2018-03-11T10:22:48.196Z,99211.58
2018-03-11T10:25:17.590Z,99215.65
2018-03-11T10:27:46.955Z,99215.84
2018-03-11T10:30:16.461Z,99216.68
2018-03-11T10:32:45.699Z,99209.64
2018-03-11T10:35:14.687Z,99204.34
2018-03-11T10:37:43.999Z,99211.31
2018-03-11T10:40:14.192Z,99210.41
2018-03-11T10:42:43.682Z,99207.34
2018-03-11T10:45:12.881Z,99209.50
2018-03-11T10:47:42.332Z,99207.70
2018-03-11T10:50:11.602Z,99203.72
2018-03-11T10:52:40.718Z,99203.23
2018-03-11T10:55:09.897Z,99204.91
2018-03-11T10:57:39.351Z,99197.38
2018-03-11T11:00:08.696Z,99196.90
2018-03-11T11:02:38.043Z,99191.02
2018-03-11T11:05:07.292Z,99192.76
2018-03-11T11:07:36.672Z,99187.33
2018-03-11T11:10:05.952Z,99186.42
2018-03-11T11:12:34.982Z,99181.96
2018-03-11T11:15:04.212Z,99177.02
2018-03-11T11:17:33.277Z,99176.95
2018-03-11T11:20:02.706Z,99176.39
2018-03-11T11:22:31.971Z,99178.98
2018-03-11T11:25:01.010Z,99180.63
2018-03-11T11:27:30.708Z,99177.91
2018-03-11T11:29:59.958Z,99180.50
2018-03-11T11:32:29.176Z,99183.92
2018-03-11T11:34:58.206Z,99182.53
2018-03-11T11:37:28.239Z,99178.55
2018-03-11T11:39:57.323Z,99185.47
2018-03-11T11:42:26.479Z,99180.58
2018-03-11T11:44:55.967Z,99177.87
2018-03-11T11:47:25.496Z,99184.33
2018-03-11T11:49:55.077Z,99185.59
2018-03-11T11:52:24.404Z,99179.31
2018-03-11T11:54:53.526Z,99185.87
2018-03-11T11:57:23.880Z,99181.77
2018-03-11T11:59:53.154Z,99179.95
2018-03-11T12:02:22.480Z,99188.26
2018-03-11T12:04:51.517Z,99185.12
2018-03-11T12:07:20.997Z,99184.95
2018-03-11T12:09:50.176Z,99186.22
2018-03-11T12:12:19.858Z,99187.56
2018-03-11T12:14:49.216Z,99182.68
2018-03-11T12:17:18.785Z,99182.81
2018-03-11T12:19:48.076Z,99182.67
2018-03-11T12:22:17.404Z,99180.03
2018-03-11T12:24:46.582Z,99191.72
2018-03-11T12:27:16.053Z,99184.66
2018-03-11T12:29:45.934Z,99186.88
2018-03-11T12:32:15.054Z,99191.84
2018-03-11T12:34:44.003Z,99191.00
2018-03-11T12:37:13.296Z,99193.65
2018-03-11T12:39:42.816Z,99193.16
2018-03-11T12:42:12.440Z,99199.03
2018-03-11T12:44:41.791Z,99192.81
2018-03-11T12:47:11.144Z,99196.92
2018-03-11T12:49:40.471Z,99197.14
2018-03-11T12:52:09.881Z,99204.75
2018-03-11T12:54:39.246Z,99201.61
2018-03-11T12:57:08.364Z,99203.36
2018-03-11T12:59:37.959Z,99211.18
2018-03-11T13:02:07.254Z,99209.75
2018-03-11T13:04:37.526Z,99208.95
2018-03-11T13:07:07.312Z,99208.84
2018-03-11T13:09:37.283Z,99212.41
2018-03-11T13:12:07.117Z,99208.59
2018-03-11T13:14:38.308Z,99210.41
2018-03-11T13:17:08.313Z,99216.14
2018-03-11T13:19:38.174Z,99218.48
2018-03-11T13:22:08.210Z,99215.20
2018-03-11T13:24:37.479Z,99215.14
2018-03-11T13:27:06.544Z,99217.48
2018-03-11T13:29:35.665Z,99219.09
2018-03-11T13:32:16.388Z,99213.72
2018-03-11T13:34:45.738Z,99219.45
2018-03-11T13:37:14.842Z,99217.99
2018-03-11T13:39:55.842Z,99215.06
2018-03-11T13:42:25.121Z,99221.70
2018-03-11T13:45:05.459Z,99221.21
2018-03-11T13:47:34.789Z,99220.66
2018-03-11T13:50:04.140Z,99226.84
2018-03-11T13:52:44.522Z,99224.94
2018-03-11T13:55:13.807Z,99229.05
2018-03-11T14:00:43.421Z,99229.05
2018-03-11T14:03:12.491Z,99227.80
2018-03-11T14:05:41.958Z,99226.81
2018-03-11T14:08:11.510Z,99230.45
2018-03-11T14:10:40.653Z,99233.03
2018-03-11T14:13:09.848Z,99229.55
2018-03-11T14:15:39.568Z,99226.19
2018-03-11T14:18:08.997Z,99232.34
2018-03-11T14:20:38.239Z,99228.29
2018-03-11T14:23:07.347Z,99232.20
2018-03-11T14:25:36.624Z,99240.09
2018-03-11T14:28:07.530Z,99242.16
2018-03-11T14:30:36.880Z,99244.89
2018-03-11T14:33:06.017Z,99245.08
2018-03-11T14:35:35.635Z,99256.11
2018-03-11T14:38:05.034Z,99258.09
2018-03-11T14:40:35.733Z,99259.42
2018-03-11T14:43:05.224Z,99264.06
2018-03-11T14:45:34.571Z,99261.59
2018-03-11T14:48:04.133Z,99257.19
2018-03-11T14:50:33.093Z,99264.66
2018-03-11T14:53:02.192Z,99266.34
2018-03-11T14:55:31.373Z,99273.47
2018-03-11T14:58:00.556Z,99273.89
2018-03-11T15:00:30.065Z,99279.13
2018-03-11T15:02:59.181Z,99276.89
2018-03-11T15:05:28.690Z,99279.90
2018-03-11T15:07:58.104Z,99286.05
2018-03-11T15:10:27.360Z,99288.56
2018-03-11T15:12:56.736Z,99291.89
2018-03-11T15:15:25.825Z,99289.72
2018-03-11T15:17:55.738Z,99292.80
2018-03-11T15:20:25.351Z,99296.47
2018-03-11T15:22:54.671Z,99296.31
2018-03-11T15:25:24.323Z,99301.14
2018-03-11T15:27:55.578Z,99302.47
2018-03-11T15:30:25.271Z,99309.10
2018-03-11T15:32:54.831Z,99304.70
2018-03-11T15:35:25.103Z,99312.25
2018-03-11T15:37:55.495Z,99316.16
2018-03-11T15:40:24.918Z,99317.48
2018-03-11T15:42:54.387Z,99317.98
2018-03-11T15:45:23.702Z,99314.84
2018-03-11T15:47:53.032Z,99315.33
2018-03-11T15:50:22.298Z,99326.58
2018-03-11T15:52:51.776Z,99324.88
2018-03-11T15:55:20.955Z,99321.17
2018-03-11T15:57:49.957Z,99321.45
2018-03-11T16:00:19.267Z,99322.02
2018-03-11T16:02:48.570Z,99325.52
2018-03-11T16:05:18.183Z,99323.06
2018-03-11T16:07:47.401Z,99323.62
2018-03-11T16:10:16.631Z,99330.87
2018-03-11T16:12:45.752Z,99329.55
2018-03-11T16:15:14.789Z,99330.46
2018-03-11T16:17:43.907Z,99338.52
2018-03-11T16:20:12.908Z,99333.77
2018-03-11T16:22:42.046Z,99338.59
2018-03-11T16:25:11.498Z,99339.64
2018-03-11T16:27:40.950Z,99341.52
2018-03-11T16:30:10.109Z,99337.47
2018-03-11T16:32:40.412Z,99338.87
2018-03-11T16:35:09.710Z,99339.84
2018-03-11T16:37:40.754Z,99335.79
2018-03-11T16:40:11.259Z,99329.64
2018-03-11T16:42:41.454Z,99335.44
2018-03-11T16:45:12.071Z,99331.88
2018-03-11T16:47:44.035Z,99337.19
2018-03-11T16:50:13.227Z,99333.69
2018-03-11T16:52:42.653Z,99337.25
2018-03-11T16:55:11.880Z,99335.93
2018-03-11T16:57:41.349Z,99338.58
2018-03-11T17:00:10.864Z,99335.58
2018-03-11T17:02:40.011Z,99339.55
2018-03-11T17:05:09.029Z,99333.02
2018-03-11T17:07:38.084Z,99335.25
2018-03-11T17:10:06.933Z,99336.48
2018-03-11T17:12:36.179Z,99334.34
2018-03-11T17:15:05.494Z,99341.85
2018-03-11T17:17:34.985Z,99330.03
2018-03-11T17:20:04.161Z,99332.08
2018-03-11T17:22:33.337Z,99325.69
2018-03-11T17:25:02.817Z,99329.31
2018-03-11T17:27:32.080Z,99327.92
2018-03-11T17:30:01.217Z,99322.19
2018-03-11T17:32:30.756Z,99323.97
2018-03-11T17:34:59.932Z,99316.02
2018-03-11T17:37:28.979Z,99313.27
2018-03-11T17:39:59.397Z,99311.78
2018-03-11T17:42:29.288Z,99314.41
2018-03-11T17:44:58.775Z,99319.53
2018-03-11T17:47:29.611Z,99314.55
2018-03-11T17:49:59.109Z,99318.66
2018-03-11T17:52:28.174Z,99317.85
2018-03-11T17:54:58.075Z,99315.69
2018-03-11T17:57:27.215Z,99318.84
2018-03-11T17:59:56.288Z,99314.05
2018-03-11T18:02:25.739Z,99310.98
2018-03-11T18:04:55.028Z,99310.88
2018-03-11T18:10:17.705Z,99316.00
2018-03-11T18:12:47.090Z,99312.97
2018-03-11T18:15:16.234Z,99309.18
2018-03-11T18:17:45.191Z,99305.03
2018-03-11T18:20:14.212Z,99309.30
2018-03-11T18:22:43.429Z,99308.42
2018-03-11T18:25:12.590Z,99307.72
2018-03-11T18:27:41.762Z,99309.08
2018-03-11T18:30:11.055Z,99307.27
2018-03-11T18:32:41.841Z,99312.12
2018-03-11T18:35:12.162Z,99311.59
2018-03-11T18:37:42.053Z,99305.72
2018-03-11T18:40:11.750Z,99306.27
2018-03-11T18:42:42.001Z,99315.08
2018-03-11T18:45:11.115Z,99306.25
2018-03-11T18:47:40.340Z,99305.91
2018-03-11T18:50:09.459Z,99304.12
2018-03-11T18:52:38.765Z,99304.16
2018-03-11T18:55:08.325Z,99305.97
2018-03-11T18:57:37.661Z,99307.59
2018-03-11T19:00:07.149Z,99310.81
2018-03-11T19:02:36.581Z,99307.86
2018-03-11T19:05:05.796Z,99315.63
2018-03-11T19:07:35.083Z,99308.00
2018-03-11T19:10:04.488Z,99305.72
2018-03-11T19:12:33.707Z,99311.40
2018-03-11T19:15:02.940Z,99314.44
2018-03-11T19:17:32.047Z,99316.52
2018-03-11T19:20:01.496Z,99316.31
2018-03-11T19:22:30.448Z,99319.88
2018-03-11T19:24:59.653Z,99324.68
2018-03-11T19:27:28.836Z,99321.78
2018-03-11T19:29:57.908Z,99322.52
2018-03-11T19:32:27.065Z,99317.22
2018-03-11T19:34:56.294Z,99319.06
2018-03-11T19:37:25.300Z,99323.76
2018-03-11T19:39:54.441Z,99320.05
2018-03-11T19:42:23.638Z,99321.72
2018-03-11T19:44:52.999Z,99316.63
2018-03-11T19:47:22.420Z,99308.56
2018-03-11T19:49:51.521Z,99310.76
2018-03-11T19:52:20.708Z,99309.45
2018-03-11T19:54:49.927Z,99304.70
2018-03-11T19:57:19.815Z,99295.68
2018-03-11T19:59:49.107Z,99293.78
2018-03-11T20:02:18.255Z,99287.30
2018-03-11T20:04:47.805Z,99289.42
2018-03-11T20:07:17.191Z,99282.42
2018-03-11T20:09:46.137Z,99293.88
2018-03-11T20:12:15.750Z,99285.53
2018-03-11T20:14:44.917Z,99278.84
2018-03-11T20:17:14.369Z,99285.16
2018-03-11T20:19:43.379Z,99277.37
2018-03-11T20:22:12.766Z,99275.80
2018-03-11T20:24:41.668Z,99273.44
2018-03-11T20:27:10.893Z,99270.45
2018-03-11T20:29:40.182Z,99267.61
2018-03-11T20:32:09.631Z,99271.66
2018-03-11T20:34:38.959Z,99256.92
2018-03-11T20:37:08.257Z,99259.25
2018-03-11T20:39:37.715Z,99265.88
2018-03-11T20:42:07.271Z,99264.53
2018-03-11T20:44:36.329Z,99264.21
2018-03-11T20:47:05.585Z,99265.53
2018-03-11T20:49:34.737Z,99267.86
2018-03-11T20:52:04.356Z,99258.14
2018-03-11T20:54:33.628Z,99254.83
2018-03-11T20:57:02.923Z,99250.98
2018-03-11T20:59:32.403Z,99255.38
2018-03-11T21:02:02.022Z,99254.27
2018-03-11T21:04:31.336Z,99258.72
2018-03-11T21:07:00.860Z,99255.92
2018-03-11T21:09:30.093Z,99253.60
2018-03-11T21:11:59.539Z,99258.08
2018-03-11T21:14:29.676Z,99261.48
2018-03-11T21:16:58.938Z,99254.07
2018-03-11T21:19:27.909Z,99258.06
2018-03-11T21:21:57.286Z,99258.86
2018-03-11T21:24:26.640Z,99262.27
2018-03-11T21:26:55.865Z,99256.52
2018-03-11T21:29:25.314Z,99256.91
2018-03-11T21:31:54.561Z,99261.50
2018-03-11T21:34:24.017Z,99267.49
2018-03-11T21:36:53.243Z,99273.52
2018-03-11T21:39:22.406Z,99270.66
2018-03-11T21:41:51.831Z,99272.88
2018-03-11T21:44:21.205Z,99268.65
2018-03-11T21:46:50.702Z,99267.02
2018-03-11T21:49:20.530Z,99261.22
2018-03-11T21:51:49.914Z,99258.86
2018-03-11T21:54:19.237Z,99272.10
2018-03-11T21:56:48.672Z,99262.05
2018-03-11T21:59:18.001Z,99268.84
2018-03-11T22:01:47.369Z,99266.41
2018-03-11T22:04:16.957Z,99269.31
2018-03-11T22:06:46.063Z,99258.48
2018-03-11T22:09:15.287Z,99258.03
2018-03-11T22:11:44.599Z,99261.74
2018-03-11T22:14:13.709Z,99257.90
2018-03-11T22:16:42.916Z,99266.28
2018-03-11T22:19:12.357Z,99263.92
2018-03-11T22:21:41.680Z,99272.26
2018-03-11T22:24:10.871Z,99270.03
2018-03-11T22:26:40.011Z,99272.27
2018-03-11T22:29:09.059Z,99273.14
2018-03-11T22:31:38.291Z,99270.39
2018-03-11T22:34:07.735Z,99277.44
2018-03-11T22:36:36.890Z,99278.53
2018-03-11T22:39:06.328Z,99280.98
2018-03-11T22:41:35.566Z,99275.44
2018-03-11T22:44:04.728Z,99281.49
2018-03-11T22:46:33.916Z,99286.67
2018-03-11T22:49:03.355Z,99289.03
2018-03-11T22:51:32.731Z,99288.25
2018-03-11T22:54:01.945Z,99288.45
2018-03-11T22:56:31.281Z,99294.56
2018-03-11T22:59:00.473Z,99303.16
2018-03-11T23:01:29.902Z,99298.83
2018-03-11T23:03:59.302Z,99297.67
2018-03-11T23:06:28.528Z,99291.77
2018-03-11T23:08:57.931Z,99299.46
2018-03-11T23:11:27.229Z,99296.38
2018-03-11T23:13:56.222Z,99298.27
2018-03-11T23:16:25.482Z,99300.92
2018-03-11T23:19:06.235Z,99307.73
2018-03-11T23:21:35.578Z,99311.57
2018-03-11T23:24:05.043Z,99315.05
2018-03-11T23:26:34.434Z,99312.08
2018-03-11T23:29:03.786Z,99320.24
2018-03-11T23:31:33.430Z,99320.16
2018-03-11T23:34:02.330Z,99322.55
2018-03-11T23:36:31.845Z,99315.30
2018-03-11T23:39:01.088Z,99318.38
2018-03-11T23:41:30.283Z,99322.69
2018-03-11T23:43:59.336Z,99317.91
2018-03-11T23:46:28.524Z,99322.54
2018-03-11T23:48:58.004Z,99320.79
2018-03-11T23:51:27.355Z,99316.23
2018-03-11T23:53:56.831Z,99321.98
2018-03-11T23:56:26.066Z,99325.27
2018-03-11T23:58:55.303Z,99323.22
